Latest Weather Observations for Centre Island

IDD60801

Issued at 6:01 pm CST Friday 20 October 2017 (issued every 30 minutes, with the page automatically refreshed every 10 minutes)

About weather observations | Map of weather stations | Latest weather observations for NT | Other Formats
Station Details ID: 014703 Name: CENTRE ISLAND Lat: -15.74 Lon: 136.82 Height: 12.2 m
Data from the previous 72 hours. | See also: Recent months at Centre Island
Date/Time
CST
Temp
°C
App
Temp
°C
Dew
Point
°C
Rel
Hum
%
Delta-T
°C
Wind Press
QNH
hPa
Press
MSL
hPa
Rain since
9am
mm
Dir  Spd
km/h
Gust
km/h
Spd
kts
Gust
kts
20/06:00pm 29.8 31.5 23.0 67 4.7 E 19 22 10 12 1011.4 1011.3 0.0
20/05:30pm 30.3 31.8 23.0 65 5.0 ENE 20 26 11 14 1011.1 1011.0 0.0
20/05:00pm 30.8 33.0 24.2 68 4.6 NE 20 28 11 15 1011.0 1010.9 0.0
20/04:30pm 31.6 33.6 22.9 60 6.0 NE 17 26 9 14 1011.0 1010.9 0.0
20/04:00pm 31.8 35.3 23.6 62 5.7 E 11 13 6 7 1011.0 1010.9 0.0
20/03:30pm 31.3 33.4 23.7 64 5.3 ESE 19 22 10 12 1011.1 1011.0 0.0
20/03:00pm 30.7 31.4 23.6 66 4.9 ESE 26 30 14 16 1011.3 1011.2 0.0
20/02:30pm 29.7 28.3 22.9 67 4.7 SE 35 39 19 21 1011.7 1011.6 0.0
20/02:09pm 29.4 27.7 22.4 66 4.8 SE 35 48 19 26 1012.1 1012.0 0.0
20/02:04pm 31.9 32.5 24.2 63 5.4 ESE 28 46 15 25 1012.2 1012.1 0.0
20/02:00pm 32.0 31.8 22.1 55 6.7 ESE 26 35 14 19 1012.2 1012.1 0.0
20/01:30pm 31.7 33.7 24.0 63 5.4 ENE 20 26 11 14 1012.2 1012.1 0.0
20/01:00pm 31.7 33.3 23.8 63 5.5 NE 22 28 12 15 1012.4 1012.3 0.0
20/12:30pm 33.6 34.9 23.3 55 7.1 E 22 26 12 14 1012.6 1012.5 0.0
20/12:00pm 33.7 35.2 24.3 58 6.6 ESE 24 32 13 17 1013.0 1012.9 0.0
20/11:30am 34.3 36.1 23.6 53 7.5 E 20 26 11 14 1013.5 1013.4 0.0
20/11:00am 33.7 35.4 23.1 54 7.3 E 19 24 10 13 1014.0 1013.9 0.0
20/10:30am 32.5 33.8 22.6 56 6.8 E 20 26 11 14 1014.0 1013.9 0.0
20/10:00am 32.2 32.9 22.3 56 6.8 E 22 30 12 16 1013.9 1013.8 0.0
20/09:30am 30.4 33.2 23.6 67 4.7 ESE 15 17 8 9 1013.9 1013.8 0.0
20/09:00am 30.7 34.1 24.1 68 4.6 SE 13 15 7 8 1013.9 1013.8 0.0
20/08:30am 30.6 34.1 23.5 66 4.9 E 11 15 6 8 1013.7 1013.6 0.0
20/08:00am 29.9 33.0 23.6 69 4.3 E 13 17 7 9 1013.5 1013.4 0.0
20/07:30am 29.2 32.7 22.9 69 4.3 ENE 9 13 5 7 1012.9 1012.8 0.0
20/07:00am 29.2 33.1 23.6 72 3.9 E 9 13 5 7 1012.4 1012.3 0.0
20/06:30am 27.9 31.9 23.7 78 2.9 E 9 13 5 7 1012.0 1011.9 0.0
20/06:00am 26.6 30.7 23.3 82 2.3 E 7 11 4 6 1011.5 1011.4 0.0
20/05:30am 26.3 31.7 23.2 83 2.1 CALM 0 0 0 0 1011.1 1011.0 0.0
20/05:00am 26.2 30.4 23.1 83 2.1 N 6 6 3 3 1010.6 1010.5 0.0
20/04:30am 26.6 31.8 23.5 83 2.1 N 2 6 1 3 1010.1 1010.0 0.0
20/04:00am 26.4 31.4 22.5 79 2.6 CALM 0 0 0 0 1009.8 1009.7 0.0
20/03:30am 26.5 31.6 22.6 79 2.6 CALM 0 0 0 0 1009.9 1009.8 0.0
20/03:00am 26.8 30.8 22.8 79 2.7 N 6 7 3 4 1010.0 1009.9 0.0
20/02:30am 27.0 31.9 22.4 76 3.1 CALM 0 0 0 0 1010.0 1009.9 0.0
20/02:00am 27.3 31.3 22.7 76 3.1 ENE 6 7 3 4 1010.1 1010.0 0.0
20/01:30am 27.2 30.9 22.2 74 3.4 ENE 6 7 3 4 1010.3 1010.2 0.0
20/01:00am 27.6 31.3 22.5 74 3.4 ENE 7 11 4 6 1010.5 1010.4 0.0
20/12:30am 27.8 31.1 22.5 73 3.6 ENE 9 11 5 6 1010.8 1010.7 0.0
20/12:00am 28.1 31.2 22.8 73 3.6 ENE 11 15 6 8 1011.1 1011.0 0.0
 
Date/Time
CST
Temp
°C
App
Temp
°C
Dew
Point
°C
Rel
Hum
%
Delta-T
°C
Wind Press
QNH
hPa
Press
MSL
hPa
Rain since
9am
mm
Dir  Spd
km/h
Gust
km/h
Spd
kts
Gust
kts
19/11:30pm 28.2 30.1 22.7 72 3.7 ENE 17 19 9 10 1011.5 1011.4 0.0
19/11:00pm 28.4 29.8 22.6 71 3.9 ENE 19 20 10 11 1011.6 1011.5 0.0
19/10:30pm 28.6 30.2 22.8 71 4.0 ENE 19 22 10 12 1011.8 1011.7 0.0
19/10:00pm 28.7 30.4 22.4 68 4.3 NE 17 20 9 11 1011.7 1011.6 0.0
19/09:30pm 28.7 31.2 23.1 71 3.8 NE 15 20 8 11 1011.5 1011.4 0.0
19/09:00pm 28.8 30.4 22.8 70 4.1 NNE 19 24 10 13 1011.3 1011.2 0.0
19/08:30pm 28.8 30.2 22.8 70 4.1 NNE 20 28 11 15 1010.8 1010.7 0.0
19/08:00pm 28.8 30.7 23.5 73 3.6 NNE 19 24 10 13 1010.5 1010.4 0.0
19/07:30pm 29.0 31.1 23.7 73 3.7 NE 19 24 10 13 1010.3 1010.2 0.0
19/07:00pm 29.1 30.9 23.5 72 3.9 NNE 20 26 11 14 1009.8 1009.7 0.0
19/06:30pm 29.2 31.0 23.2 70 4.1 NNE 19 26 10 14 1009.4 1009.3 0.0
19/06:00pm 29.6 30.9 22.6 66 4.8 NNE 20 26 11 14 1009.2 1009.1 0.0
19/05:30pm 30.3 31.8 22.7 64 5.2 NNE 19 26 10 14 1008.8 1008.7 0.0
19/05:00pm 30.7 31.6 22.6 62 5.5 NNE 22 30 12 16 1008.5 1008.4 0.0
19/04:30pm 31.1 31.5 22.4 60 5.9 NNE 24 30 13 16 1008.3 1008.2 0.0
19/04:00pm 31.5 32.6 23.1 61 5.8 NNE 22 30 12 16 1008.2 1008.1 0.0
19/03:30pm 31.8 32.9 23.1 60 6.0 NNE 22 28 12 15 1008.3 1008.2 0.0
19/03:00pm 32.3 33.1 22.4 56 6.8 NNE 22 30 12 16 1008.4 1008.3 0.0
19/02:30pm 32.9 33.1 21.4 50 7.8 NNE 22 30 12 16 1008.7 1008.6 0.0
19/02:00pm 33.5 32.3 19.2 43 9.4 NE 24 32 13 17 1009.1 1009.0 0.0
19/01:30pm 33.8 31.1 17.5 38 10.5 NNE 28 37 15 20 1009.4 1009.3 0.0
19/01:00pm 33.6 35.7 22.4 52 7.7 NE 15 20 8 11 1009.8 1009.7 0.0
19/12:30pm 33.0 35.8 21.5 50 7.8 E 9 13 5 7 1009.9 1009.8 0.0
19/12:00pm 32.3 35.5 22.4 56 6.8 SSE 9 13 5 7 1010.2 1010.1 0.0
19/11:30am 31.5 35.2 23.3 61 5.7 SE 9 13 5 7 1010.7 1010.6 0.0
19/11:00am 32.1 35.6 23.6 60 5.9 SSE 11 13 6 7 1011.0 1010.9 0.0
19/10:30am 30.9 34.5 23.0 62 5.4 SSE 9 11 5 6 1011.0 1010.9 0.0
19/10:00am 31.0 34.6 23.1 63 5.4 SSE 9 13 5 7 1011.2 1011.1 0.0
19/09:30am 30.8 34.6 23.5 65 5.0 S 9 13 5 7 1011.2 1011.1 0.0
19/09:00am 30.5 34.1 22.4 62 5.5 S 7 11 4 6 1011.4 1011.3 0.0
19/08:30am 30.4 34.1 22.3 62 5.5 NW 6 11 3 6 1011.4 1011.3 0.0
19/08:00am 29.9 33.6 22.3 63 5.2 NW 6 13 3 7 1011.2 1011.1 0.0
19/07:30am 29.1 33.1 22.8 69 4.3 NNW 6 7 3 4 1010.9 1010.8 0.0
19/07:00am 28.2 32.3 22.9 73 3.6 NNW 6 7 3 4 1010.4 1010.3 0.0
19/06:30am 27.1 31.0 22.9 78 2.9 N 7 9 4 5 1009.9 1009.8 0.0
19/06:00am 26.5 30.0 22.8 80 2.5 N 9 11 5 6 1009.4 1009.3 0.0
19/05:30am 26.9 30.4 22.9 79 2.7 N 9 15 5 8 1008.9 1008.8 0.0
19/05:00am 26.7 30.3 23.0 80 2.5 N 9 11 5 6 1008.5 1008.4 0.0
19/04:30am 26.9 30.2 22.5 77 3.0 N 9 13 5 7 1008.1 1008.0 0.0
19/04:00am 27.5 29.9 22.9 76 3.1 N 15 19 8 10 1007.9 1007.8 0.0
19/03:30am 27.6 30.1 23.2 77 3.0 N 15 20 8 11 1007.8 1007.7 0.0
19/03:00am 27.6 30.1 23.2 77 3.0 N 15 20 8 11 1007.9 1007.8 0.0
19/02:30am 27.8 30.1 23.4 77 3.0 NNE 17 22 9 12 1008.1 1008.0 0.0
19/02:00am 27.7 30.3 23.3 77 3.0 NNE 15 20 8 11 1008.2 1008.1 0.0
19/01:30am 27.8 30.3 23.2 76 3.1 N 15 20 8 11 1008.5 1008.4 0.0
19/01:00am 27.9 30.0 23.1 75 3.3 N 17 20 9 11 1008.9 1008.8 0.0
19/12:30am 28.0 30.3 23.4 76 3.2 N 17 22 9 12 1009.1 1009.0 0.0
19/12:00am 28.3 30.1 23.2 74 3.5 NNE 19 26 10 14 1009.4 1009.3 0.0
 
Date/Time
CST
Temp
°C
App
Temp
°C
Dew
Point
°C
Rel
Hum
%
Delta-T
°C
Wind Press
QNH
hPa
Press
MSL
hPa
Rain since
9am
mm
Dir  Spd
km/h
Gust
km/h
Spd
kts
Gust
kts
18/11:30pm 28.3 30.0 23.0 73 3.6 NNE 19 26 10 14 1009.5 1009.4 0.0
18/11:00pm 28.4 29.9 23.1 73 3.6 NNE 20 28 11 15 1009.6 1009.5 0.0
18/10:30pm 28.4 29.9 23.1 73 3.6 NNE 20 26 11 14 1009.7 1009.6 0.0
18/10:00pm 28.4 30.0 22.9 72 3.7 NNE 19 24 10 13 1009.6 1009.5 0.0
18/09:30pm 28.4 30.0 22.9 72 3.8 NE 19 24 10 13 1009.3 1009.2 0.0
18/09:00pm 28.4 29.1 22.9 72 3.8 NE 24 28 13 15 1008.9 1008.8 0.0
18/08:30pm 28.6 29.5 23.3 73 3.6 NE 24 32 13 17 1008.6 1008.5 0.0
18/08:00pm 28.7 29.5 23.1 71 3.8 NE 24 32 13 17 1008.0 1007.9 0.0
18/07:30pm 28.8 30.0 23.2 71 3.8 NE 22 30 12 16 1007.8 1007.7 0.0
18/07:00pm 28.9 29.9 22.9 70 4.1 NE 22 32 12 17 1007.5 1007.4 0.0
18/06:30pm 29.3 30.2 22.0 64 4.9 NE 20 28 11 15 1007.1 1007.0 0.0
18/06:00pm 29.8 30.9 22.3 64 5.1 NE 20 24 11 13 1007.0 1006.9 0.0
18/05:30pm 29.8 30.9 22.3 64 5.1 NE 20 28 11 15 1007.2 1007.1 0.0
18/05:00pm 30.2 31.3 22.4 63 5.3 NE 20 26 11 14 1007.0 1006.9 0.0
18/04:30pm 31.2 32.6 22.8 61 5.8 NNE 20 26 11 14 1006.7 1006.6 0.0
18/04:00pm 31.7 32.8 22.4 58 6.3 NNE 20 26 11 14 1006.7 1006.6 0.0
18/03:30pm 31.8 32.4 21.3 53 7.1 NNE 20 30 11 16 1007.0 1006.9 0.0
18/03:00pm 32.0 32.1 21.8 54 6.9 NNE 24 32 13 17 1007.1 1007.0 0.0
18/02:30pm 32.3 33.1 21.8 54 7.1 NNE 20 28 11 15 1007.6 1007.5 0.0
18/02:00pm 31.6 31.5 20.8 52 7.2 NE 22 30 12 16 1008.3 1008.2 0.0
18/01:30pm 31.5 31.1 20.1 50 7.6 NNE 22 28 12 15 1008.7 1008.6 0.0
18/01:00pm 33.0 34.7 22.4 53 7.3 NE 17 24 9 13 1009.1 1009.0 0.0
18/12:30pm 32.7 34.9 23.3 57 6.5 NE 17 22 9 12 1009.6 1009.5 0.0
18/12:00pm 32.9 34.8 22.7 55 7.0 NE 17 22 9 12 1009.8 1009.7 0.0
18/11:30am 32.2 34.6 22.9 58 6.4 ENE 15 20 8 11 1010.1 1010.0 0.0
18/11:00am 32.1 34.4 22.8 58 6.4 ENE 15 20 8 11 1010.5 1010.4 0.0
18/10:30am 32.0 34.9 21.8 54 6.9 WSW 9 17 5 9 1010.5 1010.4 0.0
18/10:00am 31.0 33.2 21.8 58 6.2 NNE 13 19 7 10 1010.8 1010.7 0.0
18/09:30am 30.8 34.0 22.4 61 5.7 ENE 9 13 5 7 1011.1 1011.0 0.0
18/09:00am 30.6 34.2 23.0 64 5.2 NNE 9 13 5 7 1011.4 1011.3 0.0
18/08:30am 29.4 33.1 22.6 67 4.6 N 7 11 4 6 1011.3 1011.2 0.0
18/08:00am 28.9 32.4 22.9 70 4.1 NW 9 15 5 8 1011.1 1011.0 0.0
18/07:30am 28.1 32.3 23.2 74 3.4 NW 6 9 3 5 1010.7 1010.6 0.0
18/07:00am 27.0 31.4 23.5 81 2.4 N 6 9 3 5 1010.0 1009.9 0.0
18/06:30am 26.3 29.9 23.0 82 2.2 NNW 9 13 5 7 1009.6 1009.5 0.0
18/06:00am 26.2 30.0 23.5 85 1.8 NW 9 11 5 6 1009.3 1009.2 0.0
18/05:30am 26.9 30.3 23.4 81 2.4 N 11 15 6 8 1008.6 1008.5 0.0
18/05:00am 27.0 29.6 23.9 83 2.1 NNE 17 24 9 13 1008.0 1007.9 0.0
18/04:30am 26.2 29.9 23.3 84 2.0 NNW 9 13 5 7 1007.8 1007.7 0.0
18/04:00am 26.7 30.6 23.6 83 2.1 N 9 13 5 7 1007.5 1007.4 0.0
18/03:30am 26.9 30.4 23.6 82 2.3 N 11 15 6 8 1007.4 1007.3 0.0
18/03:00am 27.0 30.2 23.7 82 2.3 N 13 17 7 9 1007.5 1007.4 0.0
18/02:30am 27.2 30.0 23.7 81 2.4 N 15 19 8 10 1007.5 1007.4 0.0
18/02:00am 27.3 30.9 23.7 81 2.5 NNE 11 17 6 9 1007.7 1007.6 0.0
18/01:30am 27.4 30.5 23.6 80 2.6 NNE 13 19 7 10 1007.8 1007.7 0.0
18/01:00am 27.4 29.7 23.4 79 2.7 NE 17 20 9 11 1008.1 1008.0 0.0
18/12:30am 27.5 29.8 23.5 79 2.7 NE 17 20 9 11 1008.4 1008.3 0.0
18/12:00am 27.6 29.6 23.6 79 2.7 NE 19 24 10 13 1008.6 1008.5 0.0
 
Date/Time
CST
Temp
°C
App
Temp
°C
Dew
Point
°C
Rel
Hum
%
Delta-T
°C
Wind Press
QNH
hPa
Press
MSL
hPa
Rain since
9am
mm
Dir  Spd
km/h
Gust
km/h
Spd
kts
Gust
kts
17/11:30pm 27.8 29.9 23.8 79 2.8 NE 19 24 10 13 1008.8 1008.7 0.0
17/11:00pm 27.7 29.5 23.5 78 2.9 NE 20 26 11 14 1008.9 1008.8 0.0
17/10:30pm 27.8 29.6 23.6 78 2.9 NE 20 26 11 14 1008.9 1008.8 0.0
17/10:00pm 27.9 29.3 23.5 77 3.0 ENE 22 28 12 15 1009.1 1009.0 0.0
17/09:30pm 27.9 29.5 23.3 76 3.2 NE 20 28 11 15 1008.8 1008.7 0.0
17/09:00pm 28.1 29.1 23.5 76 3.2 NE 24 32 13 17 1008.7 1008.6 0.0
17/08:30pm 28.1 29.1 23.5 76 3.2 ENE 24 32 13 17 1008.3 1008.2 0.0
17/08:00pm 28.2 29.6 23.6 76 3.2 ENE 22 30 12 16 1008.0 1007.9 0.0
17/07:30pm 28.4 29.4 23.5 75 3.4 ENE 24 32 13 17 1007.8 1007.7 0.0
17/07:00pm 28.5 29.8 23.4 74 3.5 NE 22 30 12 16 1007.2 1007.1 0.0
17/06:30pm 28.6 30.2 23.3 73 3.6 NE 20 26 11 14 1007.1 1007.0 0.0

Other Formats:

Comma delimited format used in spreadsheet applications
http://www.bom.gov.au/fwo/IDD60801/IDD60801.94248.axf

JavaScript Object Notation format (JSON) in row-major order
http://www.bom.gov.au/fwo/IDD60801/IDD60801.94248.json